createdAt,value
2022-07-30T00:02:02.789Z,65.20
2022-07-30T00:04:32.451Z,65.20
2022-07-30T00:07:00.914Z,65.20
2022-07-30T00:09:29.032Z,65.30
2022-07-30T00:12:01.687Z,65.30
2022-07-30T00:14:29.626Z,65.20
2022-07-30T00:16:58.235Z,65.20
2022-07-30T00:19:26.239Z,65.10
2022-07-30T00:21:55.635Z,65.10
2022-07-30T00:24:23.914Z,65.10
2022-07-30T00:26:51.711Z,65.10
2022-07-30T00:29:19.523Z,65.10
2022-07-30T00:31:47.385Z,65.00
2022-07-30T00:34:15.187Z,65.00
2022-07-30T00:36:43.043Z,65.00
2022-07-30T00:39:12.232Z,65.00
2022-07-30T00:41:54.993Z,65.00
2022-07-30T00:44:22.926Z,65.00
2022-07-30T00:46:51.547Z,65.00
2022-07-30T00:49:19.447Z,64.90
2022-07-30T00:51:47.428Z,64.90
2022-07-30T00:54:17.503Z,65.00
2022-07-30T00:56:45.316Z,65.80
2022-07-30T00:59:13.347Z,64.90
2022-07-30T01:01:41.387Z,64.90
2022-07-30T01:04:11.620Z,64.90
2022-07-30T01:06:40.133Z,64.80
2022-07-30T01:09:08.128Z,64.80
2022-07-30T01:11:39.927Z,64.80
2022-07-30T01:14:09.838Z,64.80
2022-07-30T01:16:38.845Z,64.80
2022-07-30T01:19:30.021Z,64.80
2022-07-30T01:22:07.682Z,64.80
2022-07-30T01:24:39.686Z,64.80
2022-07-30T01:27:10.570Z,64.80
2022-07-30T01:29:40.723Z,64.70
2022-07-30T01:32:09.860Z,64.70
2022-07-30T01:34:40.127Z,64.70
2022-07-30T01:37:10.441Z,64.70
2022-07-30T01:39:39.681Z,64.70
2022-07-30T01:42:10.617Z,64.70
2022-07-30T01:44:41.202Z,64.70
2022-07-30T01:47:11.148Z,64.60
2022-07-30T01:49:41.626Z,64.70
2022-07-30T01:52:10.581Z,64.60
2022-07-30T01:54:40.248Z,64.60
2022-07-30T01:57:10.627Z,64.60
2022-07-30T01:59:41.324Z,64.50
2022-07-30T02:02:09.226Z,64.50
2022-07-30T02:04:37.102Z,64.60
2022-07-30T02:07:11.490Z,64.60
2022-07-30T02:09:47.384Z,64.50
2022-07-30T02:12:30.126Z,64.50
2022-07-30T02:15:11.430Z,64.50
2022-07-30T02:17:45.017Z,64.50
2022-07-30T02:20:15.349Z,64.50
2022-07-30T02:22:48.019Z,64.50
2022-07-30T02:25:21.000Z,64.40
2022-07-30T02:27:55.517Z,64.40
2022-07-30T02:30:27.846Z,64.50
2022-07-30T02:33:00.488Z,64.40
2022-07-30T02:35:31.646Z,64.40
2022-07-30T02:38:02.129Z,64.40
2022-07-30T02:40:31.532Z,64.40
2022-07-30T02:43:02.530Z,64.40
2022-07-30T02:45:32.366Z,64.40
2022-07-30T02:48:03.041Z,64.40
2022-07-30T02:50:31.830Z,64.40
2022-07-30T02:53:02.457Z,64.30
2022-07-30T02:55:33.551Z,64.30
2022-07-30T02:58:04.962Z,64.30
2022-07-30T03:00:35.721Z,64.30
2022-07-30T03:03:05.703Z,64.20
2022-07-30T03:05:34.545Z,64.20
2022-07-30T03:08:03.181Z,64.20
2022-07-30T03:10:32.841Z,64.10
2022-07-30T03:13:03.281Z,64.10
2022-07-30T03:15:32.264Z,64.10
2022-07-30T03:18:08.154Z,64.10
2022-07-30T03:20:37.374Z,64.10
2022-07-30T03:23:06.283Z,64.10
2022-07-30T03:25:36.123Z,64.00
2022-07-30T03:28:06.794Z,64.00
2022-07-30T03:30:35.804Z,64.00
2022-07-30T03:33:04.290Z,63.90
2022-07-30T03:35:33.224Z,64.00
2022-07-30T03:38:02.133Z,63.90
2022-07-30T03:40:30.989Z,63.90
2022-07-30T03:42:59.387Z,63.90
2022-07-30T03:45:29.520Z,64.60
2022-07-30T03:48:05.386Z,63.90
2022-07-30T03:50:36.424Z,63.80
2022-07-30T03:53:05.417Z,63.80
2022-07-30T03:55:36.237Z,63.80
2022-07-30T03:58:26.734Z,63.80
2022-07-30T04:00:59.734Z,63.80
2022-07-30T04:03:29.474Z,63.80
2022-07-30T04:06:02.720Z,63.70
2022-07-30T04:08:30.696Z,63.70
2022-07-30T04:10:58.687Z,63.70
2022-07-30T04:13:49.732Z,63.60
2022-07-30T04:16:41.371Z,63.60
2022-07-30T04:19:18.745Z,63.60
2022-07-30T04:21:48.899Z,63.50
2022-07-30T04:24:19.674Z,63.50
2022-07-30T04:26:48.461Z,63.50
2022-07-30T04:29:22.586Z,63.50
2022-07-30T04:31:55.078Z,63.50
2022-07-30T04:34:49.431Z,63.50
2022-07-30T04:37:25.269Z,63.50
2022-07-30T04:39:54.730Z,63.50
2022-07-30T04:42:23.359Z,63.50
2022-07-30T04:45:02.192Z,63.40
2022-07-30T04:47:37.244Z,63.40
2022-07-30T04:50:34.506Z,63.40
2022-07-30T04:53:03.545Z,63.30
2022-07-30T04:55:36.754Z,63.30
2022-07-30T04:58:05.582Z,63.30
2022-07-30T05:00:41.225Z,63.30
2022-07-30T05:03:16.826Z,63.30
2022-07-30T05:05:57.073Z,63.30
2022-07-30T05:08:26.623Z,63.30
2022-07-30T05:10:55.904Z,63.20
2022-07-30T05:13:27.598Z,63.20
2022-07-30T05:16:03.155Z,63.20
2022-07-30T05:18:32.426Z,63.20
2022-07-30T05:21:00.515Z,63.20
2022-07-30T05:23:32.396Z,63.20
2022-07-30T05:26:19.502Z,63.20
2022-07-30T05:28:53.576Z,63.20
2022-07-30T05:31:29.375Z,63.20
2022-07-30T05:34:03.827Z,63.20
2022-07-30T05:36:42.700Z,63.20
2022-07-30T05:39:12.180Z,63.20
2022-07-30T05:41:59.953Z,63.20
2022-07-30T05:44:48.023Z,63.10
2022-07-30T05:47:15.878Z,63.20
2022-07-30T05:49:47.335Z,63.20
2022-07-30T05:52:15.904Z,63.20
2022-07-30T05:54:44.591Z,63.10
2022-07-30T05:57:30.916Z,63.10
2022-07-30T05:59:58.972Z,63.10
2022-07-30T06:02:45.026Z,63.10
2022-07-30T06:05:29.156Z,63.10
2022-07-30T06:08:00.522Z,63.00
2022-07-30T06:10:30.194Z,62.90
2022-07-30T06:12:59.334Z,62.70
2022-07-30T06:15:27.621Z,63.40
2022-07-30T06:18:01.784Z,62.60
2022-07-30T06:20:46.785Z,62.70
2022-07-30T06:23:40.523Z,62.90
2022-07-30T06:26:16.954Z,62.90
2022-07-30T06:28:45.211Z,62.90
2022-07-30T06:31:25.856Z,63.10
2022-07-30T06:33:53.831Z,63.30
2022-07-30T06:36:23.135Z,63.40
2022-07-30T06:39:00.584Z,63.80
2022-07-30T06:41:47.022Z,64.10
2022-07-30T06:44:16.027Z,64.20
2022-07-30T06:47:07.625Z,64.40
2022-07-30T06:49:38.445Z,64.50
2022-07-30T06:52:12.649Z,65.40
2022-07-30T06:54:48.281Z,64.80
2022-07-30T06:57:22.965Z,64.90
2022-07-30T06:59:56.296Z,65.10
2022-07-30T07:02:37.262Z,65.20
2022-07-30T07:05:11.686Z,65.20
2022-07-30T07:07:56.274Z,65.30
2022-07-30T07:10:27.882Z,65.40
2022-07-30T07:13:11.082Z,65.50
2022-07-30T07:15:39.196Z,65.60
2022-07-30T07:18:12.689Z,65.60
2022-07-30T07:20:46.491Z,65.80
2022-07-30T07:23:15.692Z,65.80
2022-07-30T07:25:48.247Z,65.80
2022-07-30T07:28:16.214Z,65.80
2022-07-30T07:30:45.556Z,65.70
2022-07-30T07:33:15.474Z,65.70
2022-07-30T07:35:49.573Z,65.60
2022-07-30T07:38:26.490Z,65.60
2022-07-30T07:40:56.183Z,65.60
2022-07-30T07:43:25.158Z,65.50
2022-07-30T07:45:54.905Z,65.50
2022-07-30T07:48:22.922Z,65.40
2022-07-30T07:51:00.738Z,65.40
2022-07-30T07:53:33.211Z,65.40
2022-07-30T07:56:01.191Z,65.30
2022-07-30T07:58:29.570Z,65.20
2022-07-30T08:01:01.386Z,65.10
2022-07-30T08:03:55.152Z,65.00
2022-07-30T08:06:45.793Z,65.00
2022-07-30T08:09:43.927Z,64.90
2022-07-30T08:12:25.929Z,64.80
2022-07-30T08:15:15.463Z,64.80
2022-07-30T08:18:03.677Z,64.80
2022-07-30T08:20:43.481Z,64.70
2022-07-30T08:23:13.158Z,64.60
2022-07-30T08:25:42.376Z,64.60
2022-07-30T08:28:35.215Z,64.60
2022-07-30T08:31:00.614Z,64.60
2022-07-30T08:33:30.352Z,64.50
2022-07-30T08:36:03.075Z,64.50
2022-07-30T08:38:33.663Z,64.50
2022-07-30T08:41:03.119Z,64.50
2022-07-30T08:43:32.068Z,64.40
2022-07-30T08:46:02.162Z,64.50
2022-07-30T08:48:51.448Z,64.40
2022-07-30T08:51:20.774Z,64.40
2022-07-30T08:54:07.795Z,64.40
2022-07-30T08:56:38.196Z,64.30
2022-07-30T08:59:07.945Z,64.30
2022-07-30T09:01:35.774Z,64.20
2022-07-30T09:06:37.323Z,64.20
2022-07-30T09:09:06.575Z,64.20
2022-07-30T09:11:36.913Z,64.20
2022-07-30T09:14:10.864Z,64.10
2022-07-30T09:16:40.381Z,64.10
2022-07-30T09:19:16.533Z,64.10
2022-07-30T09:21:56.533Z,63.90
2022-07-30T09:24:43.058Z,64.00
2022-07-30T09:27:45.778Z,63.90
2022-07-30T09:30:52.005Z,63.80
2022-07-30T09:33:57.794Z,63.70
2022-07-30T09:36:44.169Z,63.70
2022-07-30T09:39:32.020Z,63.60
2022-07-30T09:42:19.957Z,63.50
2022-07-30T09:44:49.698Z,63.50
2022-07-30T09:47:32.379Z,63.50
2022-07-30T09:50:07.183Z,63.50
2022-07-30T09:52:35.563Z,63.50
2022-07-30T09:55:03.712Z,63.50
2022-07-30T09:57:32.024Z,63.50
2022-07-30T10:00:24.369Z,63.40
2022-07-30T10:03:21.780Z,63.20
2022-07-30T10:06:32.747Z,63.20
2022-07-30T10:09:01.466Z,63.20
2022-07-30T10:11:42.590Z,62.90
2022-07-30T10:14:10.652Z,62.50
2022-07-30T10:16:40.227Z,62.00
2022-07-30T10:19:18.062Z,61.60
2022-07-30T10:22:14.821Z,61.30
2022-07-30T10:24:48.719Z,61.00
2022-07-30T10:27:36.042Z,60.90
2022-07-30T10:30:12.421Z,60.50
2022-07-30T10:32:44.267Z,60.30
2022-07-30T10:35:13.530Z,60.00
2022-07-30T10:38:02.520Z,59.70
2022-07-30T10:40:34.675Z,59.50
2022-07-30T10:43:48.285Z,59.10
2022-07-30T10:46:27.764Z,59.00
2022-07-30T10:49:11.728Z,58.70
2022-07-30T10:51:46.873Z,58.30
2022-07-30T10:54:41.267Z,57.70
2022-07-30T10:57:14.905Z,57.10
2022-07-30T11:00:09.882Z,56.70
2022-07-30T11:02:40.097Z,56.30
2022-07-30T11:05:45.108Z,56.20
2022-07-30T11:08:36.387Z,56.20
2022-07-30T11:11:20.486Z,56.20
2022-07-30T11:13:54.472Z,56.20
2022-07-30T11:16:24.556Z,56.00
2022-07-30T11:19:54.875Z,56.10
2022-07-30T11:22:28.216Z,56.10
2022-07-30T11:24:57.505Z,56.10
2022-07-30T11:27:45.646Z,56.20
2022-07-30T11:30:35.314Z,56.40
2022-07-30T11:33:32.144Z,56.50
2022-07-30T11:36:10.605Z,56.70
2022-07-30T11:39:00.101Z,56.80
2022-07-30T11:41:36.186Z,56.90
2022-07-30T11:44:29.816Z,57.00
2022-07-30T11:46:57.786Z,57.10
2022-07-30T11:49:25.809Z,57.20
2022-07-30T11:51:53.693Z,57.20
2022-07-30T11:54:21.491Z,57.30
2022-07-30T11:56:52.487Z,57.40
2022-07-30T11:59:20.869Z,57.40
2022-07-30T12:01:52.851Z,57.40
2022-07-30T12:04:20.871Z,57.40
2022-07-30T12:06:49.738Z,57.40
2022-07-30T12:09:27.478Z,57.40
2022-07-30T12:11:57.256Z,57.40
2022-07-30T12:14:25.312Z,57.40
2022-07-30T12:16:55.008Z,57.50
2022-07-30T12:19:22.872Z,57.50
2022-07-30T12:21:53.257Z,57.40
2022-07-30T12:24:26.587Z,57.40
2022-07-30T12:27:04.596Z,57.50
2022-07-30T12:29:33.377Z,57.50
2022-07-30T12:32:01.789Z,57.50
2022-07-30T12:34:29.647Z,57.60
2022-07-30T12:37:08.199Z,57.70
2022-07-30T12:39:36.084Z,57.70
2022-07-30T12:42:05.606Z,57.70
2022-07-30T12:44:39.439Z,57.80
2022-07-30T12:47:19.042Z,57.80
2022-07-30T12:49:49.716Z,57.80
2022-07-30T12:52:27.582Z,57.80
2022-07-30T12:55:05.518Z,57.80
2022-07-30T12:57:54.423Z,57.80
2022-07-30T13:00:22.662Z,57.80
2022-07-30T13:02:50.683Z,57.80
2022-07-30T13:05:18.722Z,57.80
2022-07-30T13:08:00.758Z,57.70
2022-07-30T13:10:31.527Z,57.60
2022-07-30T13:13:02.306Z,57.50
2022-07-30T13:15:30.421Z,57.50
2022-07-30T13:17:58.295Z,57.50
2022-07-30T13:20:26.416Z,57.50
2022-07-30T13:22:56.808Z,57.50
2022-07-30T13:25:40.372Z,57.50
2022-07-30T13:28:09.811Z,57.60
2022-07-30T13:30:37.631Z,57.70
2022-07-30T13:33:05.450Z,57.70
2022-07-30T13:35:33.259Z,57.70
2022-07-30T13:38:01.729Z,57.70
2022-07-30T13:40:32.002Z,57.80
2022-07-30T13:42:59.837Z,57.80
2022-07-30T13:45:29.781Z,57.80
2022-07-30T13:47:57.997Z,57.90
2022-07-30T13:50:25.794Z,57.80
2022-07-30T13:52:53.755Z,57.90
2022-07-30T13:55:21.531Z,57.90
2022-07-30T13:57:49.335Z,58.00
2022-07-30T14:00:17.607Z,58.00
2022-07-30T14:02:46.845Z,58.00
2022-07-30T14:05:14.710Z,58.00
2022-07-30T14:07:42.583Z,58.10
2022-07-30T14:10:10.457Z,58.10
2022-07-30T14:12:39.909Z,58.10
2022-07-30T14:15:09.330Z,58.20
2022-07-30T14:17:37.449Z,58.10
2022-07-30T14:20:07.589Z,58.20
2022-07-30T14:22:35.373Z,58.30
2022-07-30T14:25:03.183Z,58.30
2022-07-30T14:27:30.986Z,58.30
2022-07-30T14:29:58.781Z,58.30
2022-07-30T14:32:29.777Z,58.30
2022-07-30T14:35:00.382Z,58.30
2022-07-30T14:37:29.529Z,58.40
2022-07-30T14:39:57.366Z,58.40
2022-07-30T14:42:25.878Z,58.40
2022-07-30T14:44:56.851Z,58.30
2022-07-30T14:47:24.874Z,58.40
2022-07-30T14:49:52.718Z,58.40
2022-07-30T14:52:20.507Z,58.40
2022-07-30T14:54:49.738Z,58.40
2022-07-30T14:57:17.575Z,58.50
2022-07-30T14:59:45.457Z,58.50
2022-07-30T15:02:13.459Z,58.50
2022-07-30T15:04:41.352Z,58.60
2022-07-30T15:07:09.187Z,58.60
2022-07-30T15:09:36.982Z,58.70
2022-07-30T15:12:09.982Z,58.60
2022-07-30T15:14:38.679Z,58.30
2022-07-30T15:17:08.054Z,58.00
2022-07-30T15:19:35.833Z,57.90
2022-07-30T15:22:04.016Z,57.70
2022-07-30T15:24:32.715Z,57.70
2022-07-30T15:27:00.576Z,57.50
2022-07-30T15:29:30.813Z,57.50
2022-07-30T15:32:00.919Z,57.50
2022-07-30T15:34:33.913Z,57.40
2022-07-30T15:37:02.460Z,57.30
2022-07-30T15:39:32.303Z,57.90
2022-07-30T15:42:00.662Z,57.20
2022-07-30T15:44:30.374Z,57.20
2022-07-30T15:46:58.405Z,57.10
2022-07-30T15:49:26.306Z,57.20
2022-07-30T15:51:54.650Z,57.20
2022-07-30T15:54:24.774Z,57.20
2022-07-30T15:56:54.652Z,57.20
2022-07-30T15:59:30.747Z,57.20
2022-07-30T16:01:58.816Z,57.10
2022-07-30T16:04:31.508Z,57.10
2022-07-30T16:07:00.457Z,57.10
2022-07-30T16:09:28.442Z,57.10
2022-07-30T16:11:56.577Z,57.10
2022-07-30T16:14:24.744Z,57.00
2022-07-30T16:16:53.878Z,56.90
2022-07-30T16:19:21.703Z,56.80
2022-07-30T16:21:49.504Z,56.80
2022-07-30T16:24:17.363Z,56.80
2022-07-30T16:26:45.193Z,56.70
2022-07-30T16:29:14.089Z,56.80
2022-07-30T16:31:42.086Z,56.80
2022-07-30T16:34:11.229Z,56.80
2022-07-30T16:36:39.119Z,56.80
2022-07-30T16:39:07.229Z,56.70
2022-07-30T16:41:35.073Z,56.70
2022-07-30T16:44:03.107Z,57.10
2022-07-30T16:46:30.888Z,56.40
2022-07-30T16:48:58.839Z,56.30
2022-07-30T16:51:27.973Z,56.20
2022-07-30T16:53:55.776Z,56.10
2022-07-30T16:56:23.585Z,56.00
2022-07-30T16:58:51.394Z,55.90
2022-07-30T17:01:19.228Z,55.90
2022-07-30T17:03:47.077Z,55.90
2022-07-30T17:06:15.223Z,55.70
2022-07-30T17:08:44.751Z,55.30
2022-07-30T17:11:18.326Z,55.00
2022-07-30T17:14:00.736Z,54.60
2022-07-30T17:16:28.565Z,54.30
2022-07-30T17:18:56.379Z,54.00
2022-07-30T17:21:24.184Z,53.60
2022-07-30T17:23:53.370Z,53.20
2022-07-30T17:26:21.146Z,53.00
2022-07-30T17:28:48.949Z,52.70
2022-07-30T17:31:16.755Z,52.40
2022-07-30T17:33:44.565Z,52.30
2022-07-30T17:36:12.738Z,52.20
2022-07-30T17:38:40.562Z,52.10
2022-07-30T17:41:13.430Z,52.10
2022-07-30T17:43:41.723Z,52.20
2022-07-30T17:46:09.541Z,52.20
2022-07-30T17:48:37.379Z,52.20
2022-07-30T17:51:05.275Z,52.20
2022-07-30T17:53:33.066Z,52.10
2022-07-30T17:56:02.829Z,52.10
2022-07-30T17:58:32.021Z,52.10
2022-07-30T18:01:02.595Z,52.10
2022-07-30T18:03:30.710Z,52.10
2022-07-30T18:05:58.571Z,52.10
2022-07-30T18:08:29.098Z,52.10
2022-07-30T18:10:57.465Z,52.20
2022-07-30T18:13:27.137Z,52.30
2022-07-30T18:15:56.677Z,52.30
2022-07-30T18:18:24.560Z,52.30
2022-07-30T18:20:52.518Z,52.30
2022-07-30T18:23:20.558Z,52.30
2022-07-30T18:25:53.355Z,52.90
2022-07-30T18:28:22.521Z,52.20
2022-07-30T18:30:50.374Z,52.20
2022-07-30T18:33:19.965Z,52.20
2022-07-30T18:35:47.907Z,52.10
2022-07-30T18:38:15.729Z,52.00
2022-07-30T18:40:43.987Z,52.00
2022-07-30T18:43:13.048Z,52.10
2022-07-30T18:45:40.881Z,52.00
2022-07-30T18:48:08.737Z,52.00
2022-07-30T18:50:37.906Z,52.00
2022-07-30T18:53:15.338Z,52.10
2022-07-30T18:55:44.493Z,52.20
2022-07-30T18:58:12.554Z,52.20
2022-07-30T19:00:43.101Z,52.30
2022-07-30T19:03:16.436Z,52.40
2022-07-30T19:05:47.983Z,52.40
2022-07-30T19:08:15.777Z,52.50
2022-07-30T19:10:43.726Z,52.50
2022-07-30T19:13:11.566Z,52.60
2022-07-30T19:15:40.086Z,52.60
2022-07-30T19:18:08.109Z,52.70
2022-07-30T19:20:35.901Z,52.70
2022-07-30T19:23:06.761Z,52.80
2022-07-30T19:25:35.714Z,52.80
2022-07-30T19:28:05.283Z,52.90
2022-07-30T19:30:35.150Z,53.00
2022-07-30T19:33:10.118Z,53.00
2022-07-30T19:35:42.319Z,53.10
2022-07-30T19:38:11.891Z,53.10
2022-07-30T19:40:48.623Z,53.10
2022-07-30T19:43:17.243Z,53.20
2022-07-30T19:45:51.002Z,53.20
2022-07-30T19:48:28.678Z,53.30
2022-07-30T19:50:57.632Z,53.40
2022-07-30T19:53:31.113Z,53.40
2022-07-30T19:56:01.525Z,53.50
2022-07-30T19:58:30.090Z,53.50
2022-07-30T20:00:58.808Z,53.60
2022-07-30T20:03:31.495Z,53.70
2022-07-30T20:06:00.225Z,53.70
2022-07-30T20:08:29.767Z,53.80
2022-07-30T20:10:59.098Z,53.80
2022-07-30T20:13:44.686Z,53.90
2022-07-30T20:16:13.780Z,53.90
2022-07-30T20:18:42.701Z,54.00
2022-07-30T20:21:15.196Z,54.10
2022-07-30T20:23:45.365Z,54.10
2022-07-30T20:26:14.827Z,54.20
2022-07-30T20:28:45.015Z,54.20
2022-07-30T20:31:13.712Z,54.30
2022-07-30T20:33:43.169Z,54.40
2022-07-30T20:36:18.275Z,54.40
2022-07-30T20:38:47.753Z,54.50
2022-07-30T20:41:16.579Z,54.60
2022-07-30T20:43:46.039Z,54.60
2022-07-30T20:46:22.885Z,54.70
2022-07-30T20:48:51.773Z,54.70
2022-07-30T20:51:19.741Z,54.80
2022-07-30T20:53:49.538Z,54.80
2022-07-30T20:56:19.395Z,54.90
2022-07-30T20:58:48.295Z,54.90
2022-07-30T21:01:17.544Z,55.00
2022-07-30T21:03:48.060Z,55.00
2022-07-30T21:06:16.847Z,55.10
2022-07-30T21:08:44.614Z,55.10
2022-07-30T21:11:14.601Z,55.20
2022-07-30T21:13:42.631Z,55.20
2022-07-30T21:16:16.036Z,55.30
2022-07-30T21:18:50.192Z,55.30
2022-07-30T21:21:30.655Z,55.30
2022-07-30T21:24:11.783Z,55.30
2022-07-30T21:26:41.485Z,55.40
2022-07-30T21:29:10.275Z,55.40
2022-07-30T21:32:01.083Z,55.50
2022-07-30T21:34:28.880Z,55.50
2022-07-30T21:36:58.850Z,55.50
2022-07-30T21:39:28.818Z,55.60
2022-07-30T21:41:58.557Z,55.60
2022-07-30T21:44:26.317Z,55.60
2022-07-30T21:46:55.490Z,55.70
2022-07-30T21:49:23.655Z,55.70
2022-07-30T21:51:51.503Z,55.70
2022-07-30T21:54:19.408Z,55.80
2022-07-30T21:56:58.716Z,55.80
2022-07-30T22:02:15.943Z,55.90
2022-07-30T22:04:47.461Z,56.00
2022-07-30T22:07:15.626Z,56.00
2022-07-30T22:09:43.571Z,56.00
2022-07-30T22:12:18.344Z,56.00
2022-07-30T22:14:46.998Z,56.10
2022-07-30T22:17:23.547Z,56.00
2022-07-30T22:19:57.864Z,56.10
2022-07-30T22:22:30.157Z,56.10
2022-07-30T22:25:03.535Z,56.20
2022-07-30T22:27:40.222Z,56.20
2022-07-30T22:30:26.541Z,56.20
2022-07-30T22:32:54.505Z,56.30
2022-07-30T22:35:32.091Z,56.30
2022-07-30T22:38:02.117Z,56.30
2022-07-30T22:40:30.663Z,56.30
2022-07-30T22:42:59.942Z,56.30
2022-07-30T22:45:46.887Z,56.30
2022-07-30T22:48:19.278Z,56.40
2022-07-30T22:50:51.832Z,56.40
2022-07-30T22:54:11.063Z,56.50
2022-07-30T22:56:15.408Z,56.50
2022-07-30T22:58:45.332Z,56.50
2022-07-30T23:01:16.650Z,56.50
2022-07-30T23:03:44.815Z,56.50
2022-07-30T23:06:14.553Z,56.50
2022-07-30T23:08:42.647Z,56.60
2022-07-30T23:11:10.999Z,56.60
2022-07-30T23:12:31.931Z,55.90
2022-07-30T23:13:39.247Z,56.60
2022-07-30T23:16:08.498Z,56.70
2022-07-30T23:18:36.431Z,56.60
2022-07-30T23:21:05.319Z,56.70
2022-07-30T23:23:34.372Z,56.70
2022-07-30T23:26:02.974Z,56.70
2022-07-30T23:28:30.801Z,56.70
2022-07-30T23:30:59.065Z,56.80
2022-07-30T23:33:28.335Z,56.70
2022-07-30T23:35:56.560Z,56.80
2022-07-30T23:38:25.180Z,56.80
2022-07-30T23:40:53.029Z,56.90
2022-07-30T23:43:20.825Z,56.90
2022-07-30T23:45:48.662Z,56.80
2022-07-30T23:48:16.453Z,56.90
2022-07-30T23:50:46.776Z,56.90
2022-07-30T23:53:14.618Z,57.00
2022-07-30T23:55:42.447Z,56.90
2022-07-30T23:58:10.303Z,57.00
